PWSweather.com
Personal Weather Stations
Station Observations
KNYSYRAC2
Fairmount Hills, Fairmount, NY 13219

Fairmount HillsFairmount, NY 13219

Lat: 43.03602, Lon: -76.247151

Elevation: 663

Station Type: Ambient Weather WS-2080

http://weather.cerchia.com

High Low Average
Temperature 71.3°F21.8°F 54.4°F12.4°F 61.3°F16.3°F
Dew Point 57.6°F14.2°F 45.9°F7.7°F 52.6°F11.4°F
Winds 6.6 mph NE10.6 mph NE Calm Calm 3.2 mph 5.1 mph
Wind Gusts 10.7 mph17.2 mph -- 4.5 mph7.2 mph
Humidity 100% 42% 76%
Pressure 30.01 in1016.30 in 29.81 in1009.50 in -
Precipitation 0.04 in1.00 in - -
Hour Temp Dew Point Humidity Winds Wind Gusts Pressure Precip Precip Rate Daily Precip Total
12:00 AM 57.8°F14.3°C 57.6°F14.2°C 99% 3.0 mph SW4.8 kmh SW 4.5 mph7.2 kmh 29.81 in1009.5 mb 0.00 in0.0 mm 0.00 in/hr0.0 mm/hr 0.00 in0.0 mm
12:15 AM 57.6°F14.2°C 57.4°F14.1°C 99% 2.5 mph SW4.0 kmh SW 3.8 mph6.1 kmh 29.82 in1009.8 mb 0.00 in0.0 mm 0.00 in/hr0.0 mm/hr 0.00 in0.0 mm
12:30 AM 57.6°F14.2°C 57.4°F14.1°C 99% 2.8 mph SW4.5 kmh SW 4.5 mph7.2 kmh 29.82 in1009.8 mb 0.00 in0.0 mm 0.00 in/hr0.0 mm/hr 0.00 in0.0 mm
12:45 AM 57.6°F14.2°C 57.4°F14.1°C 99% 2.2 mph SW3.5 kmh SW 3.1 mph5.0 kmh 29.82 in1009.8 mb 0.00 in0.0 mm 0.00 in/hr0.0 mm/hr 0.00 in0.0 mm
01:00 AM 57.3°F14.1°C 57.0°F13.9°C 99% 2.5 mph SW4.0 kmh SW 3.8 mph6.1 kmh 29.82 in1009.8 mb 0.00 in0.0 mm 0.00 in/hr0.0 mm/hr 0.00 in0.0 mm
01:15 AM 56.9°F13.8°C 56.7°F13.7°C 99% 2.6 mph SSW4.2 kmh SSW 3.8 mph6.1 kmh 29.82 in1009.8 mb 0.00 in0.0 mm 0.00 in/hr0.0 mm/hr 0.00 in0.0 mm
01:30 AM 56.6°F13.7°C 56.3°F13.5°C 99% 3.4 mph SW5.5 kmh SW 5.4 mph8.7 kmh 29.83 in1010.2 mb 0.00 in0.0 mm 0.00 in/hr0.0 mm/hr 0.00 in0.0 mm
01:45 AM 56.4°F13.6°C 56.1°F13.4°C 99% 3.6 mph SW5.8 kmh SW 6.0 mph9.7 kmh 29.82 in1009.8 mb 0.00 in0.0 mm 0.00 in/hr0.0 mm/hr 0.00 in0.0 mm
02:00 AM 56.0°F13.3°C 55.8°F13.2°C 99% 3.4 mph SW5.5 kmh SW 3.8 mph6.1 kmh 29.82 in1009.8 mb 0.00 in0.0 mm 0.00 in/hr0.0 mm/hr 0.00 in0.0 mm
02:15 AM 55.7°F13.2°C 55.4°F13.0°C 99% 4.6 mph SW7.4 kmh SW 6.0 mph9.7 kmh 29.82 in1009.8 mb 0.00 in0.0 mm 0.00 in/hr0.0 mm/hr 0.00 in0.0 mm
02:30 AM 55.3°F12.9°C 55.0°F12.8°C 99% 4.6 mph SSW7.4 kmh SSW 6.0 mph9.7 kmh 29.82 in1009.8 mb 0.00 in0.0 mm 0.00 in/hr0.0 mm/hr 0.00 in0.0 mm
02:45 AM 55.1°F12.8°C 55.1°F12.8°C 100% 5.4 mph SSW8.7 kmh SSW 6.0 mph9.7 kmh 29.82 in1009.8 mb 0.00 in0.0 mm 0.00 in/hr0.0 mm/hr 0.00 in0.0 mm
03:00 AM 54.9°F12.7°C 54.9°F12.7°C 100% 4.7 mph SW7.6 kmh SW 6.0 mph9.7 kmh 29.82 in1009.8 mb 0.00 in0.0 mm 0.00 in/hr0.0 mm/hr 0.00 in0.0 mm
03:15 AM 54.8°F12.7°C 53.9°F12.2°C 97% 4.7 mph SW7.6 kmh SW 5.4 mph8.7 kmh 29.82 in1009.8 mb 0.01 in0.3 mm 0.04 in/hr1.0 mm/hr 0.01 in0.3 mm
03:30 AM 54.9°F12.7°C 54.1°F12.3°C 97% 3.9 mph SW6.3 kmh SW 5.4 mph8.7 kmh 29.82 in1009.8 mb 0.01 in0.3 mm 0.00 in/hr0.0 mm/hr 0.01 in0.3 mm
03:45 AM 54.8°F12.7°C 53.6°F12.0°C 96% 3.0 mph SW4.8 kmh SW 5.4 mph8.7 kmh 29.82 in1009.8 mb 0.01 in0.3 mm 0.00 in/hr0.0 mm/hr 0.01 in0.3 mm
04:00 AM 54.8°F12.7°C 53.6°F12.0°C 96% 3.8 mph SSW6.1 kmh SSW 4.5 mph7.2 kmh 29.82 in1009.8 mb 0.01 in0.3 mm 0.00 in/hr0.0 mm/hr 0.01 in0.3 mm
04:15 AM 54.6°F12.6°C 53.5°F11.9°C 96% 3.2 mph SW5.1 kmh SW 4.5 mph7.2 kmh 29.83 in1010.2 mb 0.00 in0.0 mm 0.00 in/hr0.0 mm/hr 0.01 in0.3 mm
04:30 AM 54.4°F12.4°C 53.3°F11.8°C 96% 2.0 mph SW3.2 kmh SW 3.1 mph5.0 kmh 29.83 in1010.2 mb 0.00 in0.0 mm 0.00 in/hr0.0 mm/hr 0.01 in0.3 mm
04:45 AM 54.6°F12.6°C 53.5°F11.9°C 96% 4.0 mph SW6.4 kmh SW 4.5 mph7.2 kmh 29.84 in1010.5 mb 0.00 in0.0 mm 0.00 in/hr0.0 mm/hr 0.01 in0.3 mm
05:00 AM 54.8°F12.7°C 53.6°F12.0°C 96% 3.0 mph SW4.8 kmh SW 3.8 mph6.1 kmh 29.84 in1010.5 mb 0.00 in0.0 mm 0.00 in/hr0.0 mm/hr 0.01 in0.3 mm
05:15 AM 54.9°F12.7°C 53.8°F12.1°C 96% 3.2 mph SW5.1 kmh SW 4.5 mph7.2 kmh 29.85 in1010.8 mb 0.00 in0.0 mm 0.00 in/hr0.0 mm/hr 0.01 in0.3 mm
05:30 AM 54.9°F12.7°C 53.8°F12.1°C 96% 2.4 mph SW3.9 kmh SW 3.1 mph5.0 kmh 29.85 in1010.8 mb 0.00 in0.0 mm 0.00 in/hr0.0 mm/hr 0.01 in0.3 mm
05:45 AM 54.9°F12.7°C 53.8°F12.1°C 96% 2.1 mph SSW3.4 kmh SSW 3.1 mph5.0 kmh 29.86 in1011.2 mb 0.00 in0.0 mm 0.00 in/hr0.0 mm/hr 0.01 in0.3 mm
06:00 AM 54.9°F12.7°C 53.8°F12.1°C 96% 4.7 mph SW7.6 kmh SW 5.4 mph8.7 kmh 29.86 in1011.2 mb 0.00 in0.0 mm 0.00 in/hr0.0 mm/hr 0.01 in0.3 mm
06:15 AM 55.1°F12.8°C 54.0°F12.2°C 96% 3.8 mph SSW6.1 kmh SSW 6.0 mph9.7 kmh 29.86 in1011.2 mb 0.00 in0.0 mm 0.00 in/hr0.0 mm/hr 0.01 in0.3 mm
06:30 AM 55.5°F13.1°C 54.7°F12.6°C 97% 3.4 mph SW5.5 kmh SW 3.8 mph6.1 kmh 29.87 in1011.5 mb 0.00 in0.0 mm 0.00 in/hr0.0 mm/hr 0.01 in0.3 mm
06:45 AM 55.7°F13.2°C 54.8°F12.7°C 97% 2.8 mph SW4.5 kmh SW 3.8 mph6.1 kmh 29.87 in1011.5 mb 0.00 in0.0 mm 0.00 in/hr0.0 mm/hr 0.01 in0.3 mm
07:00 AM 55.8°F13.2°C 55.0°F12.8°C 97% 2.7 mph SW4.3 kmh SW 3.8 mph6.1 kmh 29.87 in1011.5 mb 0.00 in0.0 mm 0.00 in/hr0.0 mm/hr 0.01 in0.3 mm
07:15 AM 56.0°F13.3°C 55.2°F12.9°C 97% 2.8 mph SW4.5 kmh SW 3.8 mph6.1 kmh 29.88 in1011.9 mb 0.00 in0.0 mm 0.00 in/hr0.0 mm/hr 0.01 in0.3 mm
07:30 AM 56.4°F13.6°C 55.3°F12.9°C 96% 3.1 mph SW5.0 kmh SW 3.8 mph6.1 kmh 29.88 in1011.9 mb 0.00 in0.0 mm 0.00 in/hr0.0 mm/hr 0.01 in0.3 mm
07:45 AM 56.7°F13.7°C 55.6°F13.1°C 96% 2.7 mph W4.3 kmh W 3.8 mph6.1 kmh 29.88 in1011.9 mb 0.00 in0.0 mm 0.00 in/hr0.0 mm/hr 0.01 in0.3 mm
08:00 AM 57.3°F14.1°C 56.2°F13.4°C 96% 4.1 mph WSW6.6 kmh WSW 6.0 mph9.7 kmh 29.89 in1012.2 mb 0.00 in0.0 mm 0.00 in/hr0.0 mm/hr 0.01 in0.3 mm
08:15 AM 57.8°F14.3°C 56.4°F13.6°C 95% 3.9 mph SW6.3 kmh SW 5.4 mph8.7 kmh 29.89 in1012.2 mb 0.00 in0.0 mm 0.00 in/hr0.0 mm/hr 0.01 in0.3 mm
08:30 AM 58.7°F14.8°C 57.0°F13.9°C 94% 5.7 mph SW9.2 kmh SW 6.9 mph11.1 kmh 29.90 in1012.5 mb 0.00 in0.0 mm 0.00 in/hr0.0 mm/hr 0.01 in0.3 mm
08:45 AM 58.9°F14.9°C 56.9°F13.8°C 93% 3.8 mph W6.1 kmh W 5.4 mph8.7 kmh 29.90 in1012.5 mb 0.00 in0.0 mm 0.00 in/hr0.0 mm/hr 0.01 in0.3 mm
09:00 AM 59.3°F15.2°C 56.9°F13.8°C 92% 4.8 mph W7.7 kmh W 5.4 mph8.7 kmh 29.90 in1012.5 mb 0.00 in0.0 mm 0.00 in/hr0.0 mm/hr 0.01 in0.3 mm
09:15 AM 59.8°F15.4°C 56.9°F13.8°C 90% 3.6 mph WSW5.8 kmh WSW 5.4 mph8.7 kmh 29.91 in1012.9 mb 0.00 in0.0 mm 0.00 in/hr0.0 mm/hr 0.01 in0.3 mm
09:30 AM 60.5°F15.8°C 57.0°F13.9°C 88% 4.0 mph WSW6.4 kmh WSW 6.0 mph9.7 kmh 29.91 in1012.9 mb 0.00 in0.0 mm 0.00 in/hr0.0 mm/hr 0.01 in0.3 mm
09:45 AM 60.9°F16.1°C 56.4°F13.6°C 85% 3.8 mph WSW6.1 kmh WSW 6.0 mph9.7 kmh 29.92 in1013.2 mb 0.00 in0.0 mm 0.00 in/hr0.0 mm/hr 0.01 in0.3 mm
10:00 AM 61.8°F16.6°C 55.2°F12.9°C 79% 3.6 mph SW5.8 kmh SW 4.5 mph7.2 kmh 29.91 in1012.9 mb 0.00 in0.0 mm 0.00 in/hr0.0 mm/hr 0.01 in0.3 mm
10:15 AM 62.7°F17.1°C 55.0°F12.8°C 76% 3.2 mph W5.1 kmh W 5.4 mph8.7 kmh 29.92 in1013.2 mb 0.00 in0.0 mm 0.00 in/hr0.0 mm/hr 0.01 in0.3 mm
10:30 AM 62.7°F17.1°C 53.9°F12.2°C 73% 3.1 mph NW5.0 kmh NW 4.5 mph7.2 kmh 29.92 in1013.2 mb 0.00 in0.0 mm 0.00 in/hr0.0 mm/hr 0.01 in0.3 mm
10:45 AM 62.5°F16.9°C 54.1°F12.3°C 74% 2.7 mph WSW4.3 kmh WSW 4.5 mph7.2 kmh 29.93 in1013.5 mb 0.00 in0.0 mm 0.00 in/hr0.0 mm/hr 0.01 in0.3 mm
11:00 AM 62.9°F17.2°C 54.1°F12.3°C 73% 3.9 mph NNW6.3 kmh NNW 5.4 mph8.7 kmh 29.93 in1013.5 mb 0.00 in0.0 mm 0.00 in/hr0.0 mm/hr 0.01 in0.3 mm
11:15 AM 63.6°F17.6°C 54.0°F12.2°C 71% 4.9 mph W7.9 kmh W 6.0 mph9.7 kmh 29.93 in1013.5 mb 0.00 in0.0 mm 0.00 in/hr0.0 mm/hr 0.01 in0.3 mm
11:30 AM 64.5°F18.1°C 54.1°F12.3°C 69% 4.7 mph ESE7.6 kmh ESE 7.6 mph12.2 kmh 29.93 in1013.5 mb 0.00 in0.0 mm 0.00 in/hr0.0 mm/hr 0.01 in0.3 mm
11:45 AM 64.7°F18.2°C 53.1°F11.7°C 66% 6.6 mph NE10.6 kmh NE 7.6 mph12.2 kmh 29.94 in1013.9 mb 0.00 in0.0 mm 0.00 in/hr0.0 mm/hr 0.01 in0.3 mm
12:00 PM 64.8°F18.2°C 52.8°F11.6°C 65% 4.7 mph NW7.6 kmh NW 5.4 mph8.7 kmh 29.93 in1013.5 mb 0.00 in0.0 mm 0.00 in/hr0.0 mm/hr 0.01 in0.3 mm
12:15 PM 65.2°F18.4°C 51.9°F11.1°C 62% 4.9 mph NW7.9 kmh NW 6.9 mph11.1 kmh 29.94 in1013.9 mb 0.00 in0.0 mm 0.00 in/hr0.0 mm/hr 0.01 in0.3 mm
12:30 PM 65.4°F18.6°C 52.5°F11.4°C 63% 3.7 mph NW6.0 kmh NW 6.0 mph9.7 kmh 29.94 in1013.9 mb 0.00 in0.0 mm 0.00 in/hr0.0 mm/hr 0.01 in0.3 mm
12:45 PM 64.7°F18.2°C 50.5°F10.3°C 60% 4.6 mph SW7.4 kmh SW 8.3 mph13.4 kmh 29.94 in1013.9 mb 0.00 in0.0 mm 0.00 in/hr0.0 mm/hr 0.01 in0.3 mm
01:00 PM 64.3°F17.9°C 51.0°F10.6°C 62% 3.1 mph NNE5.0 kmh NNE 4.5 mph7.2 kmh 29.94 in1013.9 mb 0.00 in0.0 mm 0.00 in/hr0.0 mm/hr 0.01 in0.3 mm
01:15 PM 65.4°F18.6°C 52.0°F11.1°C 62% 3.4 mph NNW5.5 kmh NNW 4.5 mph7.2 kmh 29.93 in1013.5 mb 0.00 in0.0 mm 0.00 in/hr0.0 mm/hr 0.01 in0.3 mm
01:30 PM 66.6°F19.2°C 51.4°F10.8°C 58% 4.9 mph NE7.9 kmh NE 6.0 mph9.7 kmh 29.94 in1013.9 mb 0.00 in0.0 mm 0.00 in/hr0.0 mm/hr 0.01 in0.3 mm
01:45 PM 66.1°F18.9°C 50.0°F10.0°C 56% 4.5 mph ENE7.2 kmh ENE 6.0 mph9.7 kmh 29.94 in1013.9 mb 0.00 in0.0 mm 0.00 in/hr0.0 mm/hr 0.01 in0.3 mm
02:00 PM 66.1°F18.9°C 50.4°F10.2°C 57% 3.0 mph NW4.8 kmh NW 6.9 mph11.1 kmh 29.94 in1013.9 mb 0.00 in0.0 mm 0.00 in/hr0.0 mm/hr 0.01 in0.3 mm
02:15 PM 66.5°F19.2°C 50.3°F10.2°C 56% 3.1 mph W5.0 kmh W 4.5 mph7.2 kmh 29.94 in1013.9 mb 0.00 in0.0 mm 0.00 in/hr0.0 mm/hr 0.01 in0.3 mm
02:30 PM 67.2°F19.6°C 50.0°F10.0°C 54% 5.2 mph W8.4 kmh W 6.0 mph9.7 kmh 29.94 in1013.9 mb 0.00 in0.0 mm 0.00 in/hr0.0 mm/hr 0.01 in0.3 mm
02:45 PM 66.8°F19.3°C 49.7°F9.8°C 54% 4.0 mph W6.4 kmh W 5.4 mph8.7 kmh 29.94 in1013.9 mb 0.00 in0.0 mm 0.00 in/hr0.0 mm/hr 0.01 in0.3 mm
03:00 PM 68.6°F20.3°C 50.3°F10.2°C 52% 4.0 mph NW6.4 kmh NW 5.4 mph8.7 kmh 29.94 in1013.9 mb 0.00 in0.0 mm 0.00 in/hr0.0 mm/hr 0.01 in0.3 mm
03:15 PM 68.1°F20.1°C 48.8°F9.3°C 50% 5.4 mph N8.7 kmh N 7.6 mph12.2 kmh 29.94 in1013.9 mb 0.00 in0.0 mm 0.00 in/hr0.0 mm/hr 0.01 in0.3 mm
03:30 PM 67.5°F19.7°C 49.3°F9.6°C 52% 2.9 mph WSW4.7 kmh WSW 3.8 mph6.1 kmh 29.94 in1013.9 mb 0.00 in0.0 mm 0.00 in/hr0.0 mm/hr 0.01 in0.3 mm
03:45 PM 67.5°F19.7°C 49.3°F9.6°C 52% 3.5 mph SW5.6 kmh SW 4.5 mph7.2 kmh 29.94 in1013.9 mb 0.00 in0.0 mm 0.00 in/hr0.0 mm/hr 0.01 in0.3 mm
04:00 PM 68.8°F20.4°C 50.0°F10.0°C 51% 4.0 mph WNW6.4 kmh WNW 6.9 mph11.1 kmh 29.94 in1013.9 mb 0.00 in0.0 mm 0.00 in/hr0.0 mm/hr 0.01 in0.3 mm
04:15 PM 68.3°F20.2°C 49.5°F9.7°C 51% 4.5 mph N7.2 kmh N 6.9 mph11.1 kmh 29.95 in1014.2 mb 0.00 in0.0 mm 0.00 in/hr0.0 mm/hr 0.01 in0.3 mm
04:30 PM 70.1°F21.2°C 50.6°F10.3°C 50% 4.9 mph NNW7.9 kmh NNW 6.0 mph9.7 kmh 29.95 in1014.2 mb 0.00 in0.0 mm 0.00 in/hr0.0 mm/hr 0.01 in0.3 mm
04:45 PM 70.1°F21.2°C 48.9°F9.4°C 47% 5.6 mph NW9.0 kmh NW 10.7 mph17.2 kmh 29.95 in1014.2 mb 0.00 in0.0 mm 0.00 in/hr0.0 mm/hr 0.01 in0.3 mm
05:00 PM 70.1°F21.2°C 50.0°F10.0°C 49% 4.0 mph NNE6.4 kmh NNE 6.0 mph9.7 kmh 29.95 in1014.2 mb 0.00 in0.0 mm 0.00 in/hr0.0 mm/hr 0.01 in0.3 mm
05:15 PM 70.6°F21.4°C 48.3°F9.1°C 45% 6.0 mph NNE9.7 kmh NNE 8.3 mph13.4 kmh 29.95 in1014.2 mb 0.00 in0.0 mm 0.00 in/hr0.0 mm/hr 0.01 in0.3 mm
05:30 PM 70.6°F21.4°C 48.8°F9.3°C 46% 6.0 mph N9.7 kmh N 7.6 mph12.2 kmh 29.95 in1014.2 mb 0.00 in0.0 mm 0.00 in/hr0.0 mm/hr 0.01 in0.3 mm
05:45 PM 71.1°F21.7°C 48.7°F9.3°C 45% 3.7 mph NNE6.0 kmh NNE 4.5 mph7.2 kmh 29.96 in1014.6 mb 0.00 in0.0 mm 0.00 in/hr0.0 mm/hr 0.01 in0.3 mm
06:00 PM 71.3°F21.8°C 47.7°F8.7°C 43% 4.0 mph WSW6.4 kmh WSW 4.5 mph7.2 kmh 29.95 in1014.2 mb 0.00 in0.0 mm 0.00 in/hr0.0 mm/hr 0.01 in0.3 mm
06:15 PM 71.0°F21.7°C 47.4°F8.6°C 43% 4.0 mph SSE6.4 kmh SSE 5.4 mph8.7 kmh 29.96 in1014.6 mb 0.00 in0.0 mm 0.00 in/hr0.0 mm/hr 0.01 in0.3 mm
06:30 PM 70.1°F21.2°C 45.9°F7.7°C 42% 4.3 mph NNE6.9 kmh NNE 5.4 mph8.7 kmh 29.97 in1014.9 mb 0.00 in0.0 mm 0.00 in/hr0.0 mm/hr 0.01 in0.3 mm
06:45 PM 70.2°F21.2°C 47.9°F8.8°C 45% 2.2 mph N3.5 kmh N 3.1 mph5.0 kmh 29.97 in1014.9 mb 0.00 in0.0 mm 0.00 in/hr0.0 mm/hr 0.01 in0.3 mm
07:00 PM 69.7°F20.9°C 47.4°F8.6°C 45% 2.5 mph NW4.0 kmh NW 3.1 mph5.0 kmh 29.97 in1014.9 mb 0.00 in0.0 mm 0.00 in/hr0.0 mm/hr 0.01 in0.3 mm
07:15 PM 69.3°F20.7°C 48.3°F9.1°C 47% 1.9 mph N3.1 kmh N 2.2 mph3.5 kmh 29.97 in1014.9 mb 0.00 in0.0 mm 0.00 in/hr0.0 mm/hr 0.01 in0.3 mm
07:30 PM 68.6°F20.3°C 48.2°F9.0°C 48% 1.1 mph NNW1.8 kmh NNW 2.2 mph3.5 kmh 29.98 in1015.2 mb 0.00 in0.0 mm 0.00 in/hr0.0 mm/hr 0.01 in0.3 mm
07:45 PM 68.3°F20.2°C 49.5°F9.7°C 51% Calm Calm -- 29.98 in1015.2 mb 0.00 in0.0 mm 0.00 in/hr0.0 mm/hr 0.01 in0.3 mm
08:00 PM 66.3°F19.1°C 50.1°F10.1°C 56% 0.1 mph SW0.2 kmh SW 0.7 mph1.1 kmh 29.99 in1015.6 mb 0.00 in0.0 mm 0.00 in/hr0.0 mm/hr 0.01 in0.3 mm
08:15 PM 63.6°F17.6°C 49.5°F9.7°C 60% 0.3 mph E0.5 kmh E 0.7 mph1.1 kmh 29.98 in1015.2 mb 0.00 in0.0 mm 0.00 in/hr0.0 mm/hr 0.01 in0.3 mm
08:30 PM 62.0°F16.7°C 49.2°F9.6°C 63% Calm Calm -- 29.99 in1015.6 mb 0.00 in0.0 mm 0.00 in/hr0.0 mm/hr 0.01 in0.3 mm
08:45 PM 60.7°F15.9°C 49.7°F9.8°C 67% Calm Calm -- 29.99 in1015.6 mb 0.00 in0.0 mm 0.00 in/hr0.0 mm/hr 0.01 in0.3 mm
09:00 PM 60.0°F15.6°C 50.2°F10.1°C 70% 0.7 mph S1.1 kmh S 2.2 mph3.5 kmh 30.00 in1015.9 mb 0.00 in0.0 mm 0.00 in/hr0.0 mm/hr 0.01 in0.3 mm
09:15 PM 59.8°F15.4°C 50.4°F10.2°C 71% 1.2 mph S1.9 kmh S 2.2 mph3.5 kmh 30.00 in1015.9 mb 0.00 in0.0 mm 0.00 in/hr0.0 mm/hr 0.01 in0.3 mm
09:30 PM 58.9°F14.9°C 51.4°F10.8°C 76% 1.8 mph SE2.9 kmh SE 1.6 mph2.6 kmh 30.00 in1015.9 mb 0.00 in0.0 mm 0.00 in/hr0.0 mm/hr 0.01 in0.3 mm
09:45 PM 58.0°F14.4°C 51.5°F10.8°C 79% 1.8 mph SE2.9 kmh SE 1.6 mph2.6 kmh 30.01 in1016.3 mb 0.00 in0.0 mm 0.00 in/hr0.0 mm/hr 0.01 in0.3 mm
10:00 PM 57.5°F14.2°C 51.7°F10.9°C 81% 0.1 mph SE0.2 kmh SE 0.7 mph1.1 kmh 30.01 in1016.3 mb 0.00 in0.0 mm 0.00 in/hr0.0 mm/hr 0.01 in0.3 mm
10:15 PM 57.3°F14.1°C 51.5°F10.8°C 81% Calm Calm -- 30.01 in1016.3 mb 0.00 in0.0 mm 0.00 in/hr0.0 mm/hr 0.01 in0.3 mm
10:30 PM 57.1°F13.9°C 51.7°F10.9°C 82% 1.2 mph SE1.9 kmh SE 1.6 mph2.6 kmh 30.00 in1015.9 mb 0.00 in0.0 mm 0.00 in/hr0.0 mm/hr 0.01 in0.3 mm
10:45 PM 56.9°F13.8°C 51.2°F10.7°C 81% 0.3 mph SE0.5 kmh SE 0.7 mph1.1 kmh 30.00 in1015.9 mb 0.00 in0.0 mm 0.00 in/hr0.0 mm/hr 0.01 in0.3 mm
11:00 PM 56.9°F13.8°C 51.2°F10.7°C 81% Calm Calm -- 30.00 in1015.9 mb 0.00 in0.0 mm 0.00 in/hr0.0 mm/hr 0.01 in0.3 mm
11:15 PM 57.6°F14.2°C 51.2°F10.7°C 79% 0.1 mph SE0.2 kmh SE 0.7 mph1.1 kmh 30.00 in1015.9 mb 0.00 in0.0 mm 0.00 in/hr0.0 mm/hr 0.01 in0.3 mm
11:30 PM 57.8°F14.3°C 51.7°F10.9°C 80% 1.9 mph SE3.1 kmh SE 2.2 mph3.5 kmh 29.99 in1015.6 mb 0.00 in0.0 mm 0.00 in/hr0.0 mm/hr 0.01 in0.3 mm
11:45 PM 58.0°F14.4°C 51.9°F11.1°C 80% 1.3 mph SSE2.1 kmh SSE 1.6 mph2.6 kmh 29.99 in1015.6 mb 0.00 in0.0 mm 0.00 in/hr0.0 mm/hr 0.01 in0.3 mm